Metar Cercanos

 

LEPA - Palma De Mallorc, Spain
Distance from station: ONO 38km
Actualización: Sun, 27-Nov-2022 3:30pm CET
Parcialmente nuboso
Parcialmente nuboso
 Viento del SSO
Viento: SSO 13 km/h
Temperatura: 18°C
Rocío: 11°C
Humedad: 64%
Barómetro: 1023 hPa
Clouds: Parcialmente nuboso
Visibility: 10 km
Cloud details: Parcialmente nuboso 975 m
2022/11/27 14:30 LEPA 271430Z 21007KT 180V240 9999 SCT032 18/11 Q1023 NOSIG
LEMH - Mahon/Menorca Is, Spain
Distance from station: ENE 105km
Actualización: Sun, 27-Nov-2022 3:30pm CET
Few Clouds
Few Clouds
 Viento del SO
Viento: SO 9 km/h
Temperatura: 16°C
Rocío: 10°C
Humedad: 68%
Barómetro: 1024 hPa
Clouds: Few Clouds
Visibility: 10 km
Cloud details: Few Clouds 610 m
2022/11/27 14:30 LEMH 271430Z 23005KT 200V260 9999 FEW020 16/10 Q1024
 
LEIB - Ibiza/Es Codola, Spain
Distance from station: OSO 165km
Actualización: Sun, 27-Nov-2022 3:30pm CET
Muy nuboso
Muy nuboso
 Viento del SSO
Viento: SSO 13 km/h
Temperatura: 18°C
Rocío: 11°C
Humedad: 64%
Barómetro: 1023 hPa
Clouds: Muy nuboso
Visibility: 10 km
Cloud details: Muy nuboso 853 m
2022/11/27 14:30 LEIB 271430Z 21007KT 170V240 9999 BKN028 18/11 Q1023 NOSIG
LEBL - Barcelona Airpor, Spain
Distance from station: NNO 225km
Actualización: Sun, 27-Nov-2022 3:30pm CET
Few Clouds
Few Clouds
 Viento del S
Viento: S 7 km/h
Temperatura: 16°C
Rocío: 9°C
Humedad: 63%
Barómetro: 1022 hPa
Clouds: Few Clouds
Visibility: 10 km
Cloud details: Few Clouds 762 m
2022/11/27 14:30 LEBL 271430Z 17004KT 150V220 9999 FEW025 16/09 Q1022 NOSIG
 
LEVC - Valencia (civ/Mi, Spain
Distance from station: NO 188km
Actualización: Sun, 27-Nov-2022 3:30pm CET
Despejado
Despejado
 Viento del SE
Viento: SE 11 km/h
Temperatura: 17°C
Rocío: 4°C
Humedad: 42%
Barómetro: 1022 hPa
Resumen: Despejado
Visibility: greater than 10 km
2022/11/27 14:30 LEVC 271430Z 14006KT CAVOK 17/04 Q1022 NOSIG
LEGE - Gerona/Costa Bra, Spain
Distance from station: N 276km
Actualización: Sun, 27-Nov-2022 3:30pm CET
Despejado
Despejado
 Viento del S
Viento: S 26 km/h
Temperatura: 16°C
Rocío: 10°C
Humedad: 68%
Barómetro: 1021 hPa
Resumen: Despejado
Visibility: greater than 10 km
2022/11/27 14:30 LEGE 271430Z 19014KT CAVOK 16/10 Q1021
 
LEAL - Alicante/El Alte, Spain
Distance from station: OSO 344km
Actualización: Sun, 27-Nov-2022 3:30pm CET
Few Clouds
Few Clouds
 Viento del S
Viento: S 11 km/h
Temperatura: 19°C
Rocío: 11°C
Humedad: 60%
Barómetro: 1023 hPa
Clouds: Few Clouds
Visibility: 10 km
Cloud details: Few Clouds 914 m
2022/11/27 14:30 LEAL 271430Z 19006KT 130V240 9999 FEW030 19/11 Q1023 NOSIG
LEAM - Almeria Airport, Spain
Distance from station: SSO 56km
Actualización: Sun, 27-Nov-2022 3:30pm CET
Despejado
Despejado
 Viento del S
Viento: S 7 km/h
Temperatura: 17°C
Rocío: 12°C
Humedad: 73%
Barómetro: 1023 hPa
Resumen: Despejado
Visibility: greater than 10 km
2022/11/27 14:30 LEAM 271430Z 19004KT CAVOK 17/12 Q1023
 
LEZG - Zaragoza (mil/Ci, Spain
Distance from station: NO 431km
Actualización: Sun, 27-Nov-2022 3:30pm CET
Despejado
Despejado
 Viento del E
Viento: E 13 km/h
Temperatura: 13°C
Rocío: 6°C
Humedad: 63%
Barómetro: 1021 hPa
Resumen: Despejado
Visibility: greater than 10 km
2022/11/27 14:30 LEZG 271430Z 09007KT CAVOK 13/06 Q1021
LEMD - Madrid/Barajas, Spain
Distance from station: ONO 234km
Actualización: Sun, 27-Nov-2022 3:30pm CET
Despejado
Despejado
 Viento del S
Viento: S 6 km/h
Temperatura: 14°C
Rocío: 4°C
Humedad: 51%
Barómetro: 1022 hPa
Resumen: Despejado
Visibility: greater than 10 km
2022/11/27 14:30 LEMD 271430Z 17003KT 110V220 CAVOK 14/04 Q1022 NOSIG
 
LEGR - Granada Airport, Spain
Distance from station: OSO 62km
Actualización: Sun, 27-Nov-2022 3:30pm CET
Despejado
Despejado
 Viento del varies
Viento: varies 2 km/h
Temperatura: 20°C
Rocío: 1°C
Humedad: 28%
Barómetro: 1023 hPa
Resumen: Despejado
Visibility: greater than 10 km
2022/11/27 14:30 LEGR 271430Z VRB01KT CAVOK 20/01 Q1023
LEMG - Malaga (civ/Mil), Spain
Distance from station: OSO 227km
Actualización: Sun, 27-Nov-2022 3:30pm CET
Despejado
Despejado
 Viento del ESE
Viento: ESE 9 km/h
Temperatura: 17°C
Rocío: 11°C
Humedad: 68%
Barómetro: 1023 hPa
Resumen: Despejado
Visibility: greater than 10 km
2022/11/27 14:30 LEMG 271430Z 12005KT CAVOK 17/11 Q1023 NOSIG
 
LEZL - Sevilla (civ/Mil, Spain
Distance from station: S 318km
Actualización: Sun, 27-Nov-2022 3:30pm CET
Despejado
Despejado
 Viento del OSO
Viento: OSO 6 km/h
Temperatura: 22°C
Rocío: 5°C
Humedad: 33%
Barómetro: 1022 hPa
Resumen: Despejado
Visibility: greater than 10 km
2022/11/27 14:30 LEZL 271430Z 24003KT 200V300 CAVOK 22/05 Q1022 NOSIG
LEVT - Vitoria, Spain
Distance from station: NO 226km
Actualización: Sun, 27-Nov-2022 3:30pm CET
Despejado
Despejado
 Viento del SO
Viento: SO 22 km/h
Temperatura: 10°C
Sensación frio: 7°C
Rocío: 5°C
Humedad: 71%
Barómetro: 1020 hPa
Resumen: Despejado
Visibility: greater than 10 km
2022/11/27 14:30 LEVT 271430Z 23012KT CAVOK 10/05 Q1020
 
LEBB - Bilbao/Sondica, Spain
Distance from station: NNO 235km
Actualización: Sun, 27-Nov-2022 3:30pm CET
Despejado
Despejado
 Viento del SSO
Viento: SSO 9 km/h
Temperatura: 19°C
Rocío: 3°C
Humedad: 35%
Barómetro: 1018 hPa
Resumen: Despejado
Visibility: greater than 10 km
2022/11/27 14:30 LEBB 271430Z 20005KT 160V270 CAVOK 19/03 Q1018 NOSIG
LESO - San Sebastian/Fu, Spain
Distance from station: N 231km
Actualización: Sun, 27-Nov-2022 3:30pm CET
Despejado
Despejado
 Viento del S
Viento: S 7 km/h
Temperatura: 19°C
Rocío: 5°C
Humedad: 40%
Barómetro: 1017 hPa
Resumen: Despejado
Visibility: greater than 10 km
2022/11/27 14:30 LESO 271430Z 19004KT 140V220 CAVOK 19/05 Q1017
 
LEVD - Valladolid(Mil/C, Spain
Distance from station: ONO 239km
Actualización: Sun, 27-Nov-2022 3:30pm CET
Muy nuboso
Muy nuboso
 Viento del O
Viento: O 17 km/h
Temperatura: 11°C
Rocío: 4°C
Humedad: 62%
Barómetro: 1021 hPa
Clouds: Muy nuboso
Visibility: 10 km
Cloud details: Parcialmente nuboso 762 m
Muy nuboso 1219 m
2022/11/27 14:30 LEVD 271430Z 27009KT 240V300 9999 SCT025 BKN040 11/04 Q1021
LESA - Salamanca (civ/M, Spain
Distance from station: ONO 349km
Actualización: Sun, 27-Nov-2022 3:30pm CET
Few Clouds
Few Clouds
 Viento del ONO
Viento: ONO 20 km/h
Temperatura: 15°C
Rocío: 4°C
Humedad: 48%
Barómetro: 1022 hPa
Clouds: Few Clouds
Visibility: 10 km
Cloud details: Few Clouds 1463 m
2022/11/27 14:30 LESA 271430Z 30011KT 9999 FEW048 15/04 Q1022
 
LEXJ - Santander/Paraya, Spain
Distance from station: NNO 247km
Actualización: Sun, 27-Nov-2022 3:30pm CET
Despejado
Despejado
 Viento del ONO
Viento: ONO 15 km/h
Temperatura: 18°C
Rocío: 9°C
Humedad: 56%
Barómetro: 1018 hPa
Resumen: Despejado
Visibility: greater than 10 km
2022/11/27 14:30 LEXJ 271430Z 29008KT 260V320 CAVOK 18/09 Q1018
LEAS - Asturias/Aviles, Spain
Distance from station: NO 214km
Actualización: Sun, 27-Nov-2022 3:30pm CET
Lluvia débil, Parcialmente nuboso
Lluvia débil, Parcialmente nuboso
 Viento del O
Viento: O 13 km/h
Temperatura: 13°C
Rocío: 11°C
Humedad: 88%
Barómetro: 1018 hPa
Resumen: Lluvia débil
Clouds: Parcialmente nuboso
Visibility: 10 km
Cloud details: Parcialmente nuboso 2134 m
Parcialmente nuboso 2438 m
2022/11/27 14:30 LEAS 271430Z 27007KT 9999 -RA SCT070 SCT080 13/11 Q1018 NOSIG
 
LECO - La Coruna/Alvedr, Spain
Distance from station: ONO 222km
Actualización: Sun, 27-Nov-2022 3:30pm CET
Light drizzle, Patches of, Niebla, Muy nuboso
Light drizzle, Patches of, Niebla, Muy nuboso
 Viento del ONO
Viento: ONO 19 km/h
Temperatura: 13°C
Rocío: 12°C
Humedad: 94%
Barómetro: 1020 hPa
Resumen: Light drizzle, Patches of, Niebla
Clouds: Muy nuboso
Visibility: 3 km
Cloud details: Few Clouds 305 m
Parcialmente nuboso 762 m
Muy nuboso 914 m
2022/11/27 14:30 LECO 271430Z 29010KT 230V360 3000 -DZ BCFG FEW010 SCT025 BKN030 13/12 Q1020 TEMPO SHRA BKN010 SCT030TCU
LEVX - Vigo/Peinador, Spain
Distance from station: O 214km
Actualización: Sun, 27-Nov-2022 3:30pm CET
Patches of fog, Lluvia, Muy nuboso
Patches of fog, Lluvia, Muy nuboso
 Viento del NO
Viento: NO 19 km/h
Temperatura: 11°C
Rocío: 11°C
Humedad: 100%
Barómetro: 1021 hPa
Resumen: Patches of fog, Lluvia
Clouds: Muy nuboso
Visibility: 1 km
Cloud details: Parcialmente nuboso 30 m
Muy nuboso 61 m
Muy nuboso 335 m
2022/11/27 14:30 LEVX 271430Z 31010KT 260V350 1200 R19/1800U R01/1300U BCFG RA SCT001 BKN002 BKN011 11/11 Q1021 NOSIG